sensor_id;sensor_type;location;lat;lon;timestamp;temperature;humidity
66096;SHT31;53861;53.422;14.530;2023-12-29T00:01:57;7.81;87.08
66096;SHT31;53861;53.422;14.530;2023-12-29T00:04:26;7.75;87.37
66096;SHT31;53861;53.422;14.530;2023-12-29T00:06:58;7.71;87.62
66096;SHT31;53861;53.422;14.530;2023-12-29T00:09:27;7.61;87.93
66096;SHT31;53861;53.422;14.530;2023-12-29T00:11:57;7.55;88.28
66096;SHT31;53861;53.422;14.530;2023-12-29T00:14:25;7.47;88.61
66096;SHT31;53861;53.422;14.530;2023-12-29T00:16:55;7.48;89.03
66096;SHT31;53861;53.422;14.530;2023-12-29T00:19:28;7.50;88.78
66096;SHT31;53861;53.422;14.530;2023-12-29T00:22:03;7.45;88.90
66096;SHT31;53861;53.422;14.530;2023-12-29T00:24:31;7.47;88.87
66096;SHT31;53861;53.422;14.530;2023-12-29T00:27:01;7.57;88.62
66096;SHT31;53861;53.422;14.530;2023-12-29T00:29:29;7.55;88.78
66096;SHT31;53861;53.422;14.530;2023-12-29T00:31:59;7.55;88.76
66096;SHT31;53861;53.422;14.530;2023-12-29T00:34:28;7.57;88.90
66096;SHT31;53861;53.422;14.530;2023-12-29T00:36:55;7.59;89.04
66096;SHT31;53861;53.422;14.530;2023-12-29T00:39:27;7.62;88.68
66096;SHT31;53861;53.422;14.530;2023-12-29T00:42:07;7.69;88.55
66096;SHT31;53861;53.422;14.530;2023-12-29T00:44:38;7.69;88.29
66096;SHT31;53861;53.422;14.530;2023-12-29T00:47:05;7.72;88.80
66096;SHT31;53861;53.422;14.530;2023-12-29T00:49:33;7.72;88.48
66096;SHT31;53861;53.422;14.530;2023-12-29T00:52:04;7.81;88.35
66096;SHT31;53861;53.422;14.530;2023-12-29T00:54:35;7.79;88.32
66096;SHT31;53861;53.422;14.530;2023-12-29T00:57:03;7.79;88.22
66096;SHT31;53861;53.422;14.530;2023-12-29T00:59:32;7.85;88.41
66096;SHT31;53861;53.422;14.530;2023-12-29T01:02:05;7.86;88.05
66096;SHT31;53861;53.422;14.530;2023-12-29T01:04:37;7.89;88.01
66096;SHT31;53861;53.422;14.530;2023-12-29T01:07:07;7.83;88.34
66096;SHT31;53861;53.422;14.530;2023-12-29T01:09:38;7.85;88.73
66096;SHT31;53861;53.422;14.530;2023-12-29T01:12:08;7.89;88.29
66096;SHT31;53861;53.422;14.530;2023-12-29T01:14:35;7.82;88.45
66096;SHT31;53861;53.422;14.530;2023-12-29T01:17:03;7.81;88.36
66096;SHT31;53861;53.422;14.530;2023-12-29T01:19:31;7.72;88.85
66096;SHT31;53861;53.422;14.530;2023-12-29T01:22:01;7.75;88.71
66096;SHT31;53861;53.422;14.530;2023-12-29T01:24:28;7.76;88.39
66096;SHT31;53861;53.422;14.530;2023-12-29T01:26:59;7.71;88.99
66096;SHT31;53861;53.422;14.530;2023-12-29T01:29:26;7.75;88.52
66096;SHT31;53861;53.422;14.530;2023-12-29T01:31:57;7.82;88.45
66096;SHT31;53861;53.422;14.530;2023-12-29T01:34:24;7.72;89.09
66096;SHT31;53861;53.422;14.530;2023-12-29T01:37:02;7.74;88.68
66096;SHT31;53861;53.422;14.530;2023-12-29T01:39:33;7.72;88.70
66096;SHT31;53861;53.422;14.530;2023-12-29T01:42:02;7.68;88.82
66096;SHT31;53861;53.422;14.530;2023-12-29T01:44:32;7.72;88.67
66096;SHT31;53861;53.422;14.530;2023-12-29T01:47:10;7.68;88.76
66096;SHT31;53861;53.422;14.530;2023-12-29T01:49:44;7.76;88.69
66096;SHT31;53861;53.422;14.530;2023-12-29T01:52:12;7.79;88.67
66096;SHT31;53861;53.422;14.530;2023-12-29T01:54:43;7.79;88.75
66096;SHT31;53861;53.422;14.530;2023-12-29T01:57:17;7.86;88.31
66096;SHT31;53861;53.422;14.530;2023-12-29T01:59:44;7.93;88.00
66096;SHT31;53861;53.422;14.530;2023-12-29T02:02:17;8.02;87.61
66096;SHT31;53861;53.422;14.530;2023-12-29T02:04:47;7.98;87.74
66096;SHT31;53861;53.422;14.530;2023-12-29T02:07:17;8.00;87.75
66096;SHT31;53861;53.422;14.530;2023-12-29T02:09:47;8.03;87.62
66096;SHT31;53861;53.422;14.530;2023-12-29T02:12:18;7.95;87.78
66096;SHT31;53861;53.422;14.530;2023-12-29T02:14:51;7.89;88.18
66096;SHT31;53861;53.422;14.530;2023-12-29T02:17:23;7.92;87.89
66096;SHT31;53861;53.422;14.530;2023-12-29T02:19:53;7.95;88.10
66096;SHT31;53861;53.422;14.530;2023-12-29T02:22:21;7.92;88.04
66096;SHT31;53861;53.422;14.530;2023-12-29T02:24:52;7.90;88.01
66096;SHT31;53861;53.422;14.530;2023-12-29T02:27:25;7.99;87.57
66096;SHT31;53861;53.422;14.530;2023-12-29T02:30:10;7.93;87.77
66096;SHT31;53861;53.422;14.530;2023-12-29T02:32:40;7.95;87.48
66096;SHT31;53861;53.422;14.530;2023-12-29T02:35:14;8.05;87.28
66096;SHT31;53861;53.422;14.530;2023-12-29T02:37:45;8.07;87.30
66096;SHT31;53861;53.422;14.530;2023-12-29T02:40:21;8.03;87.36
66096;SHT31;53861;53.422;14.530;2023-12-29T02:42:48;8.00;87.26
66096;SHT31;53861;53.422;14.530;2023-12-29T02:45:18;7.96;87.88
66096;SHT31;53861;53.422;14.530;2023-12-29T02:47:48;8.00;87.68
66096;SHT31;53861;53.422;14.530;2023-12-29T02:50:18;8.03;87.15
66096;SHT31;53861;53.422;14.530;2023-12-29T02:52:45;8.02;87.30
66096;SHT31;53861;53.422;14.530;2023-12-29T02:55:15;8.00;87.70
66096;SHT31;53861;53.422;14.530;2023-12-29T02:57:45;7.95;87.79
66096;SHT31;53861;53.422;14.530;2023-12-29T03:00:19;7.92;87.77
66096;SHT31;53861;53.422;14.530;2023-12-29T03:02:48;7.98;87.32
66096;SHT31;53861;53.422;14.530;2023-12-29T03:05:16;7.95;87.81
66096;SHT31;53861;53.422;14.530;2023-12-29T03:07:43;7.90;88.18
66096;SHT31;53861;53.422;14.530;2023-12-29T03:10:13;7.93;87.79
66096;SHT31;53861;53.422;14.530;2023-12-29T03:12:42;7.99;87.60
66096;SHT31;53861;53.422;14.530;2023-12-29T03:15:13;7.96;87.81
66096;SHT31;53861;53.422;14.530;2023-12-29T03:17:43;8.06;87.48
66096;SHT31;53861;53.422;14.530;2023-12-29T03:20:13;8.06;87.47
66096;SHT31;53861;53.422;14.530;2023-12-29T03:22:40;8.13;86.90
66096;SHT31;53861;53.422;14.530;2023-12-29T03:25:08;8.09;86.95
66096;SHT31;53861;53.422;14.530;2023-12-29T03:27:35;8.03;87.49
66096;SHT31;53861;53.422;14.530;2023-12-29T03:30:04;8.03;87.54
66096;SHT31;53861;53.422;14.530;2023-12-29T03:32:35;8.09;87.32
66096;SHT31;53861;53.422;14.530;2023-12-29T03:35:05;8.14;86.78
66096;SHT31;53861;53.422;14.530;2023-12-29T03:37:33;8.16;86.55
66096;SHT31;53861;53.422;14.530;2023-12-29T03:40:01;8.17;86.83
66096;SHT31;53861;53.422;14.530;2023-12-29T03:42:35;8.22;86.70
66096;SHT31;53861;53.422;14.530;2023-12-29T03:45:05;8.22;86.52
66096;SHT31;53861;53.422;14.530;2023-12-29T03:47:35;8.30;86.06
66096;SHT31;53861;53.422;14.530;2023-12-29T03:50:06;8.29;86.02
66096;SHT31;53861;53.422;14.530;2023-12-29T03:52:37;8.32;85.93
66096;SHT31;53861;53.422;14.530;2023-12-29T03:55:10;8.33;85.98
66096;SHT31;53861;53.422;14.530;2023-12-29T03:57:42;8.34;86.07
66096;SHT31;53861;53.422;14.530;2023-12-29T04:00:14;8.33;86.09
66096;SHT31;53861;53.422;14.530;2023-12-29T04:02:45;8.34;86.14
66096;SHT31;53861;53.422;14.530;2023-12-29T04:05:14;8.39;85.99
66096;SHT31;53861;53.422;14.530;2023-12-29T04:07:41;8.40;86.28
66096;SHT31;53861;53.422;14.530;2023-12-29T04:10:11;8.39;85.67
66096;SHT31;53861;53.422;14.530;2023-12-29T04:12:38;8.43;85.85
66096;SHT31;53861;53.422;14.530;2023-12-29T04:15:11;8.54;85.05
66096;SHT31;53861;53.422;14.530;2023-12-29T04:17:38;8.50;85.81
66096;SHT31;53861;53.422;14.530;2023-12-29T04:20:08;8.41;86.02
66096;SHT31;53861;53.422;14.530;2023-12-29T04:22:35;8.41;85.71
66096;SHT31;53861;53.422;14.530;2023-12-29T04:25:03;8.56;85.11
66096;SHT31;53861;53.422;14.530;2023-12-29T04:27:30;8.47;85.66
66096;SHT31;53861;53.422;14.530;2023-12-29T04:29:59;8.46;85.58
66096;SHT31;53861;53.422;14.530;2023-12-29T04:32:26;8.50;85.27
66096;SHT31;53861;53.422;14.530;2023-12-29T04:34:53;8.57;85.10
66096;SHT31;53861;53.422;14.530;2023-12-29T04:37:22;8.51;85.19
66096;SHT31;53861;53.422;14.530;2023-12-29T04:39:49;8.43;85.70
66096;SHT31;53861;53.422;14.530;2023-12-29T04:42:17;8.53;85.26
66096;SHT31;53861;53.422;14.530;2023-12-29T04:44:45;8.50;85.46
66096;SHT31;53861;53.422;14.530;2023-12-29T04:47:12;8.50;85.20
66096;SHT31;53861;53.422;14.530;2023-12-29T04:49:39;8.56;85.14
66096;SHT31;53861;53.422;14.530;2023-12-29T04:52:06;8.56;85.16
66096;SHT31;53861;53.422;14.530;2023-12-29T04:54:35;8.60;84.64
66096;SHT31;53861;53.422;14.530;2023-12-29T04:57:03;8.74;84.46
66096;SHT31;53861;53.422;14.530;2023-12-29T04:59:30;8.67;84.79
66096;SHT31;53861;53.422;14.530;2023-12-29T05:01:57;8.65;85.00
66096;SHT31;53861;53.422;14.530;2023-12-29T05:04:25;8.67;84.81
66096;SHT31;53861;53.422;14.530;2023-12-29T05:06:52;8.80;84.16
66096;SHT31;53861;53.422;14.530;2023-12-29T05:09:19;8.88;83.86
66096;SHT31;53861;53.422;14.530;2023-12-29T05:11:48;8.82;84.18
66096;SHT31;53861;53.422;14.530;2023-12-29T05:14:15;8.80;84.43
66096;SHT31;53861;53.422;14.530;2023-12-29T05:16:44;8.82;84.25
66096;SHT31;53861;53.422;14.530;2023-12-29T05:19:11;8.89;83.70
66096;SHT31;53861;53.422;14.530;2023-12-29T05:21:38;8.87;84.05
66096;SHT31;53861;53.422;14.530;2023-12-29T05:24:06;8.87;83.93
66096;SHT31;53861;53.422;14.530;2023-12-29T05:26:33;8.75;84.44
66096;SHT31;53861;53.422;14.530;2023-12-29T05:29:02;8.78;84.20
66096;SHT31;53861;53.422;14.530;2023-12-29T05:31:30;8.75;84.65
66096;SHT31;53861;53.422;14.530;2023-12-29T05:33:57;8.75;84.57
66096;SHT31;53861;53.422;14.530;2023-12-29T05:36:24;8.78;84.36
66096;SHT31;53861;53.422;14.530;2023-12-29T05:38:51;8.82;84.22
66096;SHT31;53861;53.422;14.530;2023-12-29T05:41:19;8.85;84.46
66096;SHT31;53861;53.422;14.530;2023-12-29T05:43:46;8.87;83.96
66096;SHT31;53861;53.422;14.530;2023-12-29T05:46:15;8.89;84.25
66096;SHT31;53861;53.422;14.530;2023-12-29T05:48:42;8.82;83.97
66096;SHT31;53861;53.422;14.530;2023-12-29T05:51:11;8.84;84.30
66096;SHT31;53861;53.422;14.530;2023-12-29T05:53:40;8.88;84.15
66096;SHT31;53861;53.422;14.530;2023-12-29T05:56:07;8.82;84.33
66096;SHT31;53861;53.422;14.530;2023-12-29T05:58:35;8.82;84.19
66096;SHT31;53861;53.422;14.530;2023-12-29T06:01:03;8.87;84.49
66096;SHT31;53861;53.422;14.530;2023-12-29T06:03:32;8.81;84.48
66096;SHT31;53861;53.422;14.530;2023-12-29T06:05:59;8.82;84.59
66096;SHT31;53861;53.422;14.530;2023-12-29T06:08:26;8.81;84.95
66096;SHT31;53861;53.422;14.530;2023-12-29T06:10:54;8.75;84.94
66096;SHT31;53861;53.422;14.530;2023-12-29T06:13:25;8.82;84.53
66096;SHT31;53861;53.422;14.530;2023-12-29T06:15:57;8.81;85.01
66096;SHT31;53861;53.422;14.530;2023-12-29T06:18:25;8.80;85.10
66096;SHT31;53861;53.422;14.530;2023-12-29T06:20:54;8.81;85.14
66096;SHT31;53861;53.422;14.530;2023-12-29T06:23:22;8.89;84.65
66096;SHT31;53861;53.422;14.530;2023-12-29T06:25:51;8.85;84.85
66096;SHT31;53861;53.422;14.530;2023-12-29T06:28:19;8.92;84.80
66096;SHT31;53861;53.422;14.530;2023-12-29T06:30:46;8.88;84.77
66096;SHT31;53861;53.422;14.530;2023-12-29T06:33:13;8.94;84.46
66096;SHT31;53861;53.422;14.530;2023-12-29T06:35:41;8.98;84.40
66096;SHT31;53861;53.422;14.530;2023-12-29T06:38:09;8.88;85.07
66096;SHT31;53861;53.422;14.530;2023-12-29T06:40:37;8.88;85.05
66096;SHT31;53861;53.422;14.530;2023-12-29T06:43:04;8.97;84.54
66096;SHT31;53861;53.422;14.530;2023-12-29T06:45:32;8.95;84.75
66096;SHT31;53861;53.422;14.530;2023-12-29T06:47:59;8.92;85.27
66096;SHT31;53861;53.422;14.530;2023-12-29T06:50:27;8.94;84.92
66096;SHT31;53861;53.422;14.530;2023-12-29T06:52:54;8.94;84.75
66096;SHT31;53861;53.422;14.530;2023-12-29T06:55:24;8.92;84.91
66096;SHT31;53861;53.422;14.530;2023-12-29T06:57:51;9.00;84.77
66096;SHT31;53861;53.422;14.530;2023-12-29T07:00:19;9.02;84.36
66096;SHT31;53861;53.422;14.530;2023-12-29T07:02:46;9.08;84.29
66096;SHT31;53861;53.422;14.530;2023-12-29T07:05:14;9.05;84.68
66096;SHT31;53861;53.422;14.530;2023-12-29T07:07:41;9.07;84.33
66096;SHT31;53861;53.422;14.530;2023-12-29T07:10:12;9.02;84.68
66096;SHT31;53861;53.422;14.530;2023-12-29T07:12:40;9.08;84.59
66096;SHT31;53861;53.422;14.530;2023-12-29T07:15:08;9.10;84.44
66096;SHT31;53861;53.422;14.530;2023-12-29T07:17:36;9.08;84.47
66096;SHT31;53861;53.422;14.530;2023-12-29T07:20:04;9.10;84.82
66096;SHT31;53861;53.422;14.530;2023-12-29T07:22:32;9.07;84.86
66096;SHT31;53861;53.422;14.530;2023-12-29T07:25:00;9.05;85.07
66096;SHT31;53861;53.422;14.530;2023-12-29T07:27:27;9.15;84.53
66096;SHT31;53861;53.422;14.530;2023-12-29T07:29:56;9.18;84.85
66096;SHT31;53861;53.422;14.530;2023-12-29T07:32:24;9.28;84.28
66096;SHT31;53861;53.422;14.530;2023-12-29T07:34:51;9.31;84.41
66096;SHT31;53861;53.422;14.530;2023-12-29T07:37:18;9.29;84.57
66096;SHT31;53861;53.422;14.530;2023-12-29T07:39:46;9.33;84.30
66096;SHT31;53861;53.422;14.530;2023-12-29T07:42:14;9.49;83.70
66096;SHT31;53861;53.422;14.530;2023-12-29T07:44:43;9.55;83.75
66096;SHT31;53861;53.422;14.530;2023-12-29T07:47:11;9.47;83.97
66096;SHT31;53861;53.422;14.530;2023-12-29T07:49:41;9.55;83.69
66096;SHT31;53861;53.422;14.530;2023-12-29T07:52:08;9.50;83.99
66096;SHT31;53861;53.422;14.530;2023-12-29T07:54:36;9.60;83.53
66096;SHT31;53861;53.422;14.530;2023-12-29T07:57:03;9.63;83.56
66096;SHT31;53861;53.422;14.530;2023-12-29T07:59:30;9.63;83.44
66096;SHT31;53861;53.422;14.530;2023-12-29T08:01:58;9.65;83.45
66096;SHT31;53861;53.422;14.530;2023-12-29T08:04:26;9.60;83.46
66096;SHT31;53861;53.422;14.530;2023-12-29T08:06:54;9.63;83.32
66096;SHT31;53861;53.422;14.530;2023-12-29T08:09:21;9.62;83.73
66096;SHT31;53861;53.422;14.530;2023-12-29T08:11:49;9.63;83.63
66096;SHT31;53861;53.422;14.530;2023-12-29T08:14:17;9.50;84.06
66096;SHT31;53861;53.422;14.530;2023-12-29T08:16:44;9.12;85.60
66096;SHT31;53861;53.422;14.530;2023-12-29T08:19:12;8.98;87.06
66096;SHT31;53861;53.422;14.530;2023-12-29T08:21:42;8.68;89.14
66096;SHT31;53861;53.422;14.530;2023-12-29T08:24:09;8.47;90.92
66096;SHT31;53861;53.422;14.530;2023-12-29T08:26:44;8.39;91.18
66096;SHT31;53861;53.422;14.530;2023-12-29T08:29:12;8.39;91.85
66096;SHT31;53861;53.422;14.530;2023-12-29T08:31:39;8.37;91.98
66096;SHT31;53861;53.422;14.530;2023-12-29T08:34:06;8.39;92.00
66096;SHT31;53861;53.422;14.530;2023-12-29T08:36:34;8.37;92.36
66096;SHT31;53861;53.422;14.530;2023-12-29T08:39:03;8.37;92.59
66096;SHT31;53861;53.422;14.530;2023-12-29T08:41:30;8.29;93.08
66096;SHT31;53861;53.422;14.530;2023-12-29T08:43:57;8.16;93.60
66096;SHT31;53861;53.422;14.530;2023-12-29T08:46:25;8.17;94.04
66096;SHT31;53861;53.422;14.530;2023-12-29T08:48:53;8.16;93.95
66096;SHT31;53861;53.422;14.530;2023-12-29T08:51:20;8.16;93.81
66096;SHT31;53861;53.422;14.530;2023-12-29T08:53:48;8.10;93.99
66096;SHT31;53861;53.422;14.530;2023-12-29T08:56:16;8.25;93.99
66096;SHT31;53861;53.422;14.530;2023-12-29T08:58:44;8.32;93.79
66096;SHT31;53861;53.422;14.530;2023-12-29T09:01:11;8.37;93.27
66096;SHT31;53861;53.422;14.530;2023-12-29T09:03:38;8.41;92.69
66096;SHT31;53861;53.422;14.530;2023-12-29T09:06:06;8.65;92.54
66096;SHT31;53861;53.422;14.530;2023-12-29T09:08:34;9.07;92.59
66096;SHT31;53861;53.422;14.530;2023-12-29T09:11:01;9.76;89.97
66096;SHT31;53861;53.422;14.530;2023-12-29T09:13:30;9.72;89.69
66096;SHT31;53861;53.422;14.530;2023-12-29T09:15:58;9.87;89.16
66096;SHT31;53861;53.422;14.530;2023-12-29T09:18:26;9.83;88.20
66096;SHT31;53861;53.422;14.530;2023-12-29T09:20:53;9.93;89.03
66096;SHT31;53861;53.422;14.530;2023-12-29T09:23:20;10.41;88.62
66096;SHT31;53861;53.422;14.530;2023-12-29T09:25:47;11.78;86.18
66096;SHT31;53861;53.422;14.530;2023-12-29T09:28:15;12.08;82.35
66096;SHT31;53861;53.422;14.530;2023-12-29T09:30:44;12.57;82.78
66096;SHT31;53861;53.422;14.530;2023-12-29T09:33:11;11.98;81.64
66096;SHT31;53861;53.422;14.530;2023-12-29T09:35:38;10.99;83.90
66096;SHT31;53861;53.422;14.530;2023-12-29T09:38:05;10.44;85.83
66096;SHT31;53861;53.422;14.530;2023-12-29T09:40:35;10.52;85.77
66096;SHT31;53861;53.422;14.530;2023-12-29T09:43:03;10.69;85.76
66096;SHT31;53861;53.422;14.530;2023-12-29T09:45:33;11.06;84.15
66096;SHT31;53861;53.422;14.530;2023-12-29T09:48:03;10.93;84.53
66096;SHT31;53861;53.422;14.530;2023-12-29T09:50:34;10.62;85.44
66096;SHT31;53861;53.422;14.530;2023-12-29T09:53:02;10.35;86.87
66096;SHT31;53861;53.422;14.530;2023-12-29T09:55:30;10.16;87.65
66096;SHT31;53861;53.422;14.530;2023-12-29T09:57:59;10.21;87.45
66096;SHT31;53861;53.422;14.530;2023-12-29T10:00:26;10.24;87.46
66096;SHT31;53861;53.422;14.530;2023-12-29T10:02:55;10.42;87.28
66096;SHT31;53861;53.422;14.530;2023-12-29T10:05:24;10.52;86.69
66096;SHT31;53861;53.422;14.530;2023-12-29T10:07:52;10.34;86.50
66096;SHT31;53861;53.422;14.530;2023-12-29T10:10:21;10.18;87.40
66096;SHT31;53861;53.422;14.530;2023-12-29T10:12:51;10.00;88.00
66096;SHT31;53861;53.422;14.530;2023-12-29T10:15:21;10.10;87.60
66096;SHT31;53861;53.422;14.530;2023-12-29T10:18:10;10.00;88.52
66096;SHT31;53861;53.422;14.530;2023-12-29T10:20:45;9.90;88.43
66096;SHT31;53861;53.422;14.530;2023-12-29T10:23:18;9.97;88.52
66096;SHT31;53861;53.422;14.530;2023-12-29T10:25:47;9.96;88.73
66096;SHT31;53861;53.422;14.530;2023-12-29T10:28:16;9.87;89.05
66096;SHT31;53861;53.422;14.530;2023-12-29T10:30:44;9.79;89.49
66096;SHT31;53861;53.422;14.530;2023-12-29T10:33:19;9.67;89.08
66096;SHT31;53861;53.422;14.530;2023-12-29T10:35:58;9.69;89.36
66096;SHT31;53861;53.422;14.530;2023-12-29T10:38:29;9.57;89.80
66096;SHT31;53861;53.422;14.530;2023-12-29T10:41:10;9.73;89.39
66096;SHT31;53861;53.422;14.530;2023-12-29T10:43:38;9.79;88.90
66096;SHT31;53861;53.422;14.530;2023-12-29T10:46:07;9.76;89.42
66096;SHT31;53861;53.422;14.530;2023-12-29T10:48:35;9.77;89.18
66096;SHT31;53861;53.422;14.530;2023-12-29T10:51:05;9.75;88.88
66096;SHT31;53861;53.422;14.530;2023-12-29T10:53:33;9.77;88.95
66096;SHT31;53861;53.422;14.530;2023-12-29T10:56:00;9.87;88.67
66096;SHT31;53861;53.422;14.530;2023-12-29T10:58:28;10.08;87.52
66096;SHT31;53861;53.422;14.530;2023-12-29T11:00:56;10.10;87.30
66096;SHT31;53861;53.422;14.530;2023-12-29T11:03:24;10.08;87.17
66096;SHT31;53861;53.422;14.530;2023-12-29T11:05:58;9.94;87.68
66096;SHT31;53861;53.422;14.530;2023-12-29T11:08:28;9.96;87.79
66096;SHT31;53861;53.422;14.530;2023-12-29T11:10:55;9.94;87.86
66096;SHT31;53861;53.422;14.530;2023-12-29T11:13:23;9.96;87.75
66096;SHT31;53861;53.422;14.530;2023-12-29T11:15:52;9.98;87.08
66096;SHT31;53861;53.422;14.530;2023-12-29T11:18:22;10.04;86.09
66096;SHT31;53861;53.422;14.530;2023-12-29T11:20:50;10.08;85.57
66096;SHT31;53861;53.422;14.530;2023-12-29T11:23:17;9.91;85.20
66096;SHT31;53861;53.422;14.530;2023-12-29T11:25:47;10.01;85.16
66096;SHT31;53861;53.422;14.530;2023-12-29T11:28:15;9.96;85.00
66096;SHT31;53861;53.422;14.530;2023-12-29T11:30:43;10.03;84.38
66096;SHT31;53861;53.422;14.530;2023-12-29T11:33:14;10.13;83.98
66096;SHT31;53861;53.422;14.530;2023-12-29T11:35:45;10.27;83.72
66096;SHT31;53861;53.422;14.530;2023-12-29T11:38:26;10.31;83.21
66096;SHT31;53861;53.422;14.530;2023-12-29T11:41:03;10.13;83.33
66096;SHT31;53861;53.422;14.530;2023-12-29T11:43:32;10.06;83.66
66096;SHT31;53861;53.422;14.530;2023-12-29T11:46:00;9.93;84.17
66096;SHT31;53861;53.422;14.530;2023-12-29T11:48:55;10.07;83.30
66096;SHT31;53861;53.422;14.530;2023-12-29T11:51:32;10.04;83.33
66096;SHT31;53861;53.422;14.530;2023-12-29T11:54:01;10.18;83.16
66096;SHT31;53861;53.422;14.530;2023-12-29T11:56:34;10.25;83.00
66096;SHT31;53861;53.422;14.530;2023-12-29T11:59:18;10.22;82.97
66096;SHT31;53861;53.422;14.530;2023-12-29T12:01:48;10.37;82.45
66096;SHT31;53861;53.422;14.530;2023-12-29T12:04:37;10.79;81.07
66096;SHT31;53861;53.422;14.530;2023-12-29T12:07:07;10.35;82.16
66096;SHT31;53861;53.422;14.530;2023-12-29T12:09:35;10.13;83.55
66096;SHT31;53861;53.422;14.530;2023-12-29T12:12:05;10.04;83.71
66096;SHT31;53861;53.422;14.530;2023-12-29T12:14:49;9.91;84.69
66096;SHT31;53861;53.422;14.530;2023-12-29T12:17:32;9.89;84.52
66096;SHT31;53861;53.422;14.530;2023-12-29T12:20:03;9.86;85.49
66096;SHT31;53861;53.422;14.530;2023-12-29T12:22:31;9.82;84.96
66096;SHT31;53861;53.422;14.530;2023-12-29T12:24:59;9.91;85.11
66096;SHT31;53861;53.422;14.530;2023-12-29T12:27:28;9.96;85.15
66096;SHT31;53861;53.422;14.530;2023-12-29T12:29:56;10.01;84.86
66096;SHT31;53861;53.422;14.530;2023-12-29T12:32:25;9.93;85.44
66096;SHT31;53861;53.422;14.530;2023-12-29T12:34:52;9.97;85.35
66096;SHT31;53861;53.422;14.530;2023-12-29T12:37:21;9.93;85.32
66096;SHT31;53861;53.422;14.530;2023-12-29T12:39:49;10.03;84.79
66096;SHT31;53861;53.422;14.530;2023-12-29T12:42:18;10.00;85.28
66096;SHT31;53861;53.422;14.530;2023-12-29T12:44:55;9.87;85.94
66096;SHT31;53861;53.422;14.530;2023-12-29T12:47:27;9.97;85.50
66096;SHT31;53861;53.422;14.530;2023-12-29T12:49:54;9.91;85.80
66096;SHT31;53861;53.422;14.530;2023-12-29T12:52:22;9.90;86.25
66096;SHT31;53861;53.422;14.530;2023-12-29T12:54:49;9.79;87.72
66096;SHT31;53861;53.422;14.530;2023-12-29T12:57:20;9.73;88.08
66096;SHT31;53861;53.422;14.530;2023-12-29T12:59:49;9.70;88.63
66096;SHT31;53861;53.422;14.530;2023-12-29T13:02:18;9.63;89.13
66096;SHT31;53861;53.422;14.530;2023-12-29T13:04:46;9.52;90.58
66096;SHT31;53861;53.422;14.530;2023-12-29T13:07:15;9.31;91.17
66096;SHT31;53861;53.422;14.530;2023-12-29T13:09:43;6.59;99.36
66096;SHT31;53861;53.422;14.530;2023-12-29T13:12:11;5.40;99.57
66096;SHT31;53861;53.422;14.530;2023-12-29T13:14:39;5.26;99.28
66096;SHT31;53861;53.422;14.530;2023-12-29T13:17:07;5.39;99.91
66096;SHT31;53861;53.422;14.530;2023-12-29T13:19:38;5.47;98.76
66096;SHT31;53861;53.422;14.530;2023-12-29T13:22:08;5.60;98.76
66096;SHT31;53861;53.422;14.530;2023-12-29T13:24:42;5.71;98.17
66096;SHT31;53861;53.422;14.530;2023-12-29T13:27:10;5.83;98.56
66096;SHT31;53861;53.422;14.530;2023-12-29T13:29:39;5.88;98.45
66096;SHT31;53861;53.422;14.530;2023-12-29T13:32:10;5.94;98.27
66096;SHT31;53861;53.422;14.530;2023-12-29T13:34:49;6.07;97.76
66096;SHT31;53861;53.422;14.530;2023-12-29T13:37:24;6.15;97.90
66096;SHT31;53861;53.422;14.530;2023-12-29T13:39:58;6.24;97.61
66096;SHT31;53861;53.422;14.530;2023-12-29T13:42:29;6.29;97.51
66096;SHT31;53861;53.422;14.530;2023-12-29T13:44:58;6.31;97.35
66096;SHT31;53861;53.422;14.530;2023-12-29T13:47:27;6.38;98.19
66096;SHT31;53861;53.422;14.530;2023-12-29T13:49:55;6.43;97.88
66096;SHT31;53861;53.422;14.530;2023-12-29T13:52:23;6.48;98.19
66096;SHT31;53861;53.422;14.530;2023-12-29T13:54:50;6.46;98.42
66096;SHT31;53861;53.422;14.530;2023-12-29T13:57:18;6.52;98.68
66096;SHT31;53861;53.422;14.530;2023-12-29T13:59:45;6.56;98.36
66096;SHT31;53861;53.422;14.530;2023-12-29T14:02:23;6.55;97.55
66096;SHT31;53861;53.422;14.530;2023-12-29T14:05:14;6.62;98.21
66096;SHT31;53861;53.422;14.530;2023-12-29T14:07:46;6.63;97.99
66096;SHT31;53861;53.422;14.530;2023-12-29T14:10:14;6.65;98.42
66096;SHT31;53861;53.422;14.530;2023-12-29T14:12:41;6.61;97.71
66096;SHT31;53861;53.422;14.530;2023-12-29T14:15:09;6.68;98.53
66096;SHT31;53861;53.422;14.530;2023-12-29T14:17:38;6.66;98.23
66096;SHT31;53861;53.422;14.530;2023-12-29T14:20:07;6.71;98.89
66096;SHT31;53861;53.422;14.530;2023-12-29T14:22:36;6.72;98.96
66096;SHT31;53861;53.422;14.530;2023-12-29T14:25:05;6.63;98.30
66096;SHT31;53861;53.422;14.530;2023-12-29T14:27:33;6.71;98.93
66096;SHT31;53861;53.422;14.530;2023-12-29T14:30:01;6.71;99.10
66096;SHT31;53861;53.422;14.530;2023-12-29T14:32:35;6.73;98.73
66096;SHT31;53861;53.422;14.530;2023-12-29T14:35:02;6.75;99.16
66096;SHT31;53861;53.422;14.530;2023-12-29T14:37:37;6.71;98.18
66096;SHT31;53861;53.422;14.530;2023-12-29T14:40:06;6.76;98.99
66096;SHT31;53861;53.422;14.530;2023-12-29T14:42:37;6.75;98.67
66096;SHT31;53861;53.422;14.530;2023-12-29T14:45:06;6.77;99.01
66096;SHT31;53861;53.422;14.530;2023-12-29T14:47:34;6.84;99.12
66096;SHT31;53861;53.422;14.530;2023-12-29T14:50:02;6.86;98.69
66096;SHT31;53861;53.422;14.530;2023-12-29T14:52:29;6.87;98.10
66096;SHT31;53861;53.422;14.530;2023-12-29T14:54:58;6.90;98.34
66096;SHT31;53861;53.422;14.530;2023-12-29T14:57:25;6.90;98.38
66096;SHT31;53861;53.422;14.530;2023-12-29T14:59:53;6.93;98.68
66096;SHT31;53861;53.422;14.530;2023-12-29T15:02:20;6.97;98.79
66096;SHT31;53861;53.422;14.530;2023-12-29T15:04:47;6.99;98.81
66096;SHT31;53861;53.422;14.530;2023-12-29T15:07:15;6.99;98.26
66096;SHT31;53861;53.422;14.530;2023-12-29T15:09:43;7.06;98.45
66096;SHT31;53861;53.422;14.530;2023-12-29T15:12:11;7.06;97.84
66096;SHT31;53861;53.422;14.530;2023-12-29T15:14:39;7.04;97.73
66096;SHT31;53861;53.422;14.530;2023-12-29T15:17:07;7.08;98.33
66096;SHT31;53861;53.422;14.530;2023-12-29T15:19:35;7.11;98.52
66096;SHT31;53861;53.422;14.530;2023-12-29T15:22:02;7.14;98.32
66096;SHT31;53861;53.422;14.530;2023-12-29T15:24:30;7.18;98.51
66096;SHT31;53861;53.422;14.530;2023-12-29T15:26:57;7.18;98.46
66096;SHT31;53861;53.422;14.530;2023-12-29T15:29:26;7.20;97.90
66096;SHT31;53861;53.422;14.530;2023-12-29T15:31:55;7.23;98.33
66096;SHT31;53861;53.422;14.530;2023-12-29T15:34:22;7.32;98.96
66096;SHT31;53861;53.422;14.530;2023-12-29T15:36:50;7.34;98.07
66096;SHT31;53861;53.422;14.530;2023-12-29T15:39:17;7.41;98.46
66096;SHT31;53861;53.422;14.530;2023-12-29T15:41:44;7.48;98.44
66096;SHT31;53861;53.422;14.530;2023-12-29T15:44:11;7.50;97.93